Miscellaneous Local Product
Issued by NWS

Current Version |  Previous Version |  Text Only |  Print | Product List |  Glossary On
Versions: 1 2 3 4 5 6 7 8 9 10 11 12 13 14 15 16 17 18 19 20 21 22 23 24 25 26 27 28 29 30 31 32 33 34 35 36 37 38 39 40 41 42 43 44 45 46 47 48 49 50
045
AXUS44 KLUB 241015
MISWTM

METAR KARS 241005Z 28013KT 17/M07 A2977 RMK A01 SLP022 T01691072 RH18% DA4500
METAR KAD1 241005Z 04014KT 13/M01 A2989 RMK A01 SLP037 T01291010 RH38% DA5100
METAR KAI1 241005Z 26009KT 11/M01 A2977 RMK A01 SLP023 T01141014 RH41% DA3900
METAR KAL1 241005Z 19009KT 24/22 A2971 RMK A01 SLP041 T02420221 RH88% DA3000
METAR KAM3 241005Z 03015KT 14/01 A2984 RMK A01 SLP046 T01440008 RH40% DA4100
METAR KAM1 241005Z 02019KT 14/01 A2983 RMK A01 SLP035 T01410013 RH42% DA4500
METAR KAM2 241005Z 01013KT 14/02 A2983 RMK A01 SLP043 T01410023 RH45% DA4100
METAR KAMH 241005Z 27012KT 18/M10 A2980 RMK A01 SLP022 T01791103 RH14% DA5000 RFTI1
METAR KANS 241005Z 22007KT 16/M06 A2982 RMK A01 SLP043 T01641063 RH21% DA4200
METAR KAOS 241005Z 28011KT 15/M10 A2978 RMK A01 SLP025 T01541099 RH17% DA4400
METAR KASR 241005Z 19008KT 22/21 A2969 RMK A01 SLP028 T02190207 RH93% DA3200
METAR KBE1 241005Z 19010KT 16/M13 A2985 RMK A01 SLP053 T01591130 RH13% DA4000
METAR KBI1 241005Z 20005KT 24/19 A2983 RMK A01 SLP045 T02360190 RH75% DA4500
METAR KBO1 241005Z 01015KT 15/M11 A2990 RMK A01 SLP034 T01511110 RH15% DA5500 RFTI1
METAR KBO2 241005Z 02015KT 15/01 A2983 RMK A01 SLP048 T01490010 RH39% DA4000
METAR KBY1 241005Z 08005KT 15/00 A2986 RMK A01 SLP056 T01470002 RH37% DA4000
METAR KBWS 241005Z 25011KT 17/M09 A2981 RMK A01 SLP035 T01691094 RH16% DA4400
METAR KCA1 241005Z 36024KT 17/03 A2975 RMK A01 SLP040 T01720027 RH38% DA3500
METAR KCA3 241005Z 00014KT 15/M01 A2983 RMK A01 SLP036 T01461013 RH33% DA4500
METAR KQU1 241005Z 27017G30KT 24/M11 A2969 RMK A01 SLP007 T02361106 RH09% DA4500 RFTI1
METAR KCA2 241005Z 32008KT 25/M15 A2978 RMK A01 SLP046 T02501154 RH06% DA4000
METAR KCXS 241005Z 18008KT 21/20 A2967 RMK A01 SLP015 T02060203 RH98% DA3400
METAR KCES 241005Z 32011KT 16/16 A2971 RMK A01 SLP009 T01600159 RH100% DA3900
METAR KCL1 241005Z 34020KT 12/08 A2977 RMK A01 SLP019 T01230078 RH74% DA4100
METAR KCL2 241005Z 17005KT 23/22 A2978 RMK A01 SLP052 T02260223 RH98% DA3600
METAR KCO2 241005Z 16008KT 20/20 A2976 RMK A01 SLP040 T02020202 RH100% DA3500
METAR KCO3 241005Z 00000KT 21/21 A2967 RMK A01 SLP020 T02140212 RH98% DA3100
METAR KCO4 241005Z 11015KT 26/23 A2971 RMK A01 SLP039 T02650234 RH83% DA3200
METAR KCO1 241005Z 22007KT 18/M16 A2981 RMK A01 SLP052 T01791156 RH09% DA3700
METAR KCR2 241005Z 23006KT 20/13 A2980 RMK A01 SLP043 T02030127 RH61% DA3900
METAR KCR1 241005Z 21013G21KT 24/22 A2966 RMK A01 SLP020 T02360224 RH93% DA3200
METAR KDC1 241005Z 26011KT 20/M11 A2991 RMK A01 SLP056 T02031114 RH11% DA5200
METAR KDVS 241005Z 24010KT 15/M12 A2984 RMK A01 SLP037 T01471117 RH15% DA4600
METAR KDMS 241005Z 28012KT 16/M11 A2979 RMK A01 SLP013 T01651109 RH14% DA5100 RFTI1
METAR KDO2 241005Z 01004KT 24/22 A2975 RMK A01 SLP051 T02350218 RH90% DA3100
METAR KDR1 241005Z 27011KT 16/M13 A2987 RMK A01 SLP026 T01641132 RH12% DA5600 RFTI1
METAR KDO1 241005Z 30009KT 19/19 A2972 RMK A01 SLP023 T01940191 RH99% DA3600
METAR KDU1 241005Z 00014KT 13/M00 A2985 RMK A01 SLP044 T01281003 RH40% DA4300
METAR KEA1 241005Z 26011KT 17/M10 A2982 RMK A01 SLP026 T01661104 RH15% DA4900
METAR KEN1 241005Z 03010KT 13/M02 A2988 RMK A01 SLP043 T01311019 RH35% DA4700
METAR KES1 241005Z 19008KT 19/17 A2966 RMK A01 SLP014 T01870175 RH93% DA3100
METAR KFL2 241005Z 28010KT 22/M09 A2967 RMK A01 SLP008 T02211087 RH12% DA4100
METAR KFLS 241005Z 25008KT 13/M03 A2976 RMK A01 SLP024 T01271033 RH33% DA3900
METAR KFVS 241005Z 20006KT 18/15 A2976 RMK A01 SLP028 T01820150 RH81% DA3900
METAR KCH1 241005Z 11003KT 22/21 A2978 RMK A01 SLP053 T02170214 RH98% DA3500
METAR KLA1 241005Z 17005KT 27/22 A2979 RMK A01 SLP045 T02730222 RH74% DA4200
METAR KFL1 241005Z 24007KT 06/M07 A3007 RMK A01 SLP978 T00621069 RH39% DA8300
METAR KMC1 241005Z 00000KT 24/23 A2980 RMK A01 SLP051 T02360234 RH99% DA3800
METAR KFAS 241005Z 31011KT 15/M12 A2983 RMK A01 SLP023 T01511116 RH15% DA5100 RFTI1
METAR KFR1 241005Z 04015KT 15/00 A2984 RMK A01 SLP049 T01480002 RH37% DA4000
METAR KGGS 241005Z 25008KT 17/10 A2976 RMK A01 SLP035 T01680099 RH64% DA3500
METAR KTI1 241005Z 00000KT 24/23 A2975 RMK A01 SLP057 T02360227 RH95% DA2700
METAR KGDS 241005Z 19007KT 22/21 A2965 RMK A01 SLP013 T02180213 RH97% DA3200
METAR KGO1 241005Z 33014G22KT 13/13 A2977 RMK A01 SLP024 T01320131 RH99% DA3900
METAR KGHS 241005Z 22006KT 21/M12 A2977 RMK A01 SLP031 T02101116 RH10% DA4400
METAR KGU1 241005Z 28023G39KT 22/M15 A2994 RMK A01 SLP1000 T02181153 RH07% DA7600 RFTI1
METAR KPFS 241005Z 20007KT 20/19 A2970 RMK A01 SLP023 T01990188 RH94% DA3300
METAR KHA3 241005Z 19015KT 22/22 A2966 RMK A01 SLP016 T02170217 RH100% DA3300
METAR KHA2 241005Z 31016KT 17/M11 A2980 RMK A01 SLP025 T01671114 RH14% DA4800 RFTI1
METAR KHRS 241005Z 27012KT 13/M08 A2978 RMK A01 SLP019 T01271078 RH23% DA4500
METAR KHA1 241005Z 19010KT 24/22 A2968 RMK A01 SLP027 T02410223 RH90% DA3300
METAR KHE1 241005Z 19013KT 24/23 A2967 RMK A01 SLP025 T02410226 RH91% DA3200
METAR KHES 241005Z 00019KT 14/M07 A2984 RMK A01 SLP034 T01451068 RH22% DA4800 RFTI1
METAR KHO1 241005Z 22004KT 14/M12 A2985 RMK A01 SLP043 T01371118 RH16% DA4500
METAR KPD3 241005Z 00000KT 16/16 A2971 RMK A01 SLP015 T01630163 RH100% DA3600
METAR KJA1 241005Z 25006KT 16/M14 A2985 RMK A01 SLP044 T01601137 RH12% DA4600
METAR KJTS 241005Z 00000KT 19/18 A2971 RMK A01 SLP029 T01930181 RH93% DA3300
METAR KJU1 241005Z 19004KT 24/22 A2978 RMK A01 SLP056 T02440219 RH86% DA3400
METAR KKE1 241005Z 23008KT 21/M16 A2992 RMK A01 SLP048 T02111157 RH07% DA5600
METAR KKN1 241005Z 21006KT 23/22 A2967 RMK A01 SLP026 T02310219 RH93% DA3100
METAR KAHS 241005Z 25007KT 20/14 A2973 RMK A01 SLP026 T02040139 RH66% DA3700
METAR KMC5 241005Z 33018KT 16/15 A2977 RMK A01 SLP021 T01580146 RH93% DA4200
METAR KLES 241005Z 22007KT 15/M07 A2979 RMK A01 SLP039 T01481067 RH22% DA3800
METAR KLE1 241005Z 29005KT 16/16 A2967 RMK A01 SLP013 T01570158 RH100% DA3100
METAR KLD1 241005Z 27011KT 17/M09 A2980 RMK A01 SLP027 T01731094 RH15% DA4700 RFTI1
METAR KLI1 241005Z 35014KT 15/02 A2981 RMK A01 SLP057 T01480024 RH43% DA3300
METAR KLO1 241005Z 22009KT 19/13 A2979 RMK A01 SLP041 T01930126 RH65% DA3800
METAR KLB3 241005Z 24007KT 17/M08 A2979 RMK A01 SLP032 T01751084 RH16% DA4400
METAR KLC1 241005Z 20007KT 17/M10 A2979 RMK A01 SLP031 T01731104 RH14% DA4500
METAR KLB2 241005Z 25009KT 18/M10 A2978 RMK A01 SLP028 T01791096 RH14% DA4400
METAR KMA2 241005Z 04008KT 13/M18 A2999 RMK A01 SLP055 T01311184 RH10% DA5500
METAR KMA1 241005Z 23014KT 18/M07 A2970 RMK A01 SLP014 T01811067 RH18% DA4000
METAR KMC6 240645Z 19009KT 18/15 A2975 RMK A01 SLP018 T01820151 RH82% DA4300
METAR KMC4 241005Z 14005KT 25/18 A2981 RMK A01 SLP046 T02460181 RH67% DA4300
METAR KMCS 241005Z 33016KT 18/17 A2973 RMK A01 SLP012 T01760167 RH94% DA4100
METAR KMES 241005Z 25004KT 19/19 A2967 RMK A01 SLP011 T01930191 RH99% DA3400
METAR KMD1 241005Z 00000KT 23/23 A2979 RMK A01 SLP054 T02300227 RH98% DA3500
METAR KME1 241005Z 19007KT 24/23 A2979 RMK A01 SLP047 T02430226 RH90% DA3900
METAR KMI1 241005Z 35019KT 16/06 A2979 RMK A01 SLP041 T01630058 RH50% DA3700
METAR KMNS 241005Z 28006KT 13/M07 A2983 RMK A01 SLP034 T01261067 RH25% DA4500
METAR KMUS 241005Z 26011KT 13/M11 A2982 RMK A01 SLP030 T01301114 RH17% DA4600
METAR KNE1 241005Z 27009KT 13/M07 A2977 RMK A01 SLP028 T01321067 RH24% DA4000
METAR KNH1 241005Z 24011KT 15/M09 A2981 RMK A01 SLP038 T01541094 RH17% DA4200
METAR KNOR 241005Z 21007KT 14/12 A2967 RMK A01 SLP017 T01420121 RH87% DA2800
METAR KLBW 241005Z 22008KT 17/M11 A2978 RMK A01 SLP028 T01721106 RH14% DA4400
METAR KASU 241005Z 00000KT 22/21 A2977 RMK A01 SLP053 T02190210 RH95% DA3400
METAR KOES 241005Z 27008KT 12/M08 A2980 RMK A01 SLP041 T01171081 RH24% DA3500
METAR KOD1 241005Z 17011KT 24/23 A2966 RMK A01 SLP022 T02410231 RH94% DA3100
METAR KONS 241005Z 25010KT 13/M06 A2978 RMK A01 SLP023 T01351062 RH25% DA4400
METAR KPAD 241005Z 21013KT 20/19 A2969 RMK A01 SLP021 T02010186 RH91% DA3400
METAR KPD2 241005Z 32013KT 16/00 A2977 RMK A01 SLP035 T01630004 RH34% DA3800
METAR KPD1 241005Z 35018KT 15/00 A2981 RMK A01 SLP032 T01480004 RH37% DA4400
METAR KPD4 241005Z 36011KT 12/01 A2985 RMK A01 SLP059 T01160009 RH48% DA3400
METAR KPMS 241005Z 35020KT 14/04 A2980 RMK A01 SLP036 T01360044 RH53% DA4000
METAR KPA1 241005Z 01020KT 13/05 A2982 RMK A01 SLP036 T01280051 RH59% DA4100
METAR KPA2 241005Z 02023KT 13/03 A2982 RMK A01 SLP032 T01340028 RH49% DA4300
METAR KPA3 241005Z 01020KT 13/02 A2982 RMK A01 SLP034 T01330025 RH48% DA4300
METAR KPG1 241005Z 00000KT 21/M11 A2982 RMK A01 SLP046 T02151108 RH10% DA4400
METAR KPPS 241005Z 26008KT 14/M10 A2984 RMK A01 SLP036 T01391104 RH17% DA4600
METAR KPVS 241005Z 26010KT 17/M08 A2976 RMK A01 SLP018 T01751078 RH17% DA4600
METAR KPT1 241005Z 24010KT 19/M07 A2974 RMK A01 SLP029 T01871065 RH17% DA3900
METAR KRLS 241005Z 23012KT 15/M07 A2976 RMK A01 SLP026 T01541068 RH21% DA4100
METAR KREE 241005Z 26010KT 18/M12 A2978 RMK A01 SLP025 T01791118 RH12% DA4600
METAR KRRS 241005Z 24011KT 14/00 A2971 RMK A01 SLP020 T01440001 RH38% DA3400
METAR KBR1 241005Z 02016KT 13/M01 A2986 RMK A01 SLP038 T01281006 RH40% DA4700
METAR KRO1 241005Z 19013KT 23/20 A2972 RMK A01 SLP029 T02290203 RH85% DA3700
METAR KST1 241005Z 18007KT 23/16 A2980 RMK A01 SLP039 T02260163 RH67% DA4400
METAR KSGV 241005Z 24008KT 16/M09 A2982 RMK A01 SLP038 T01631092 RH17% DA4400
METAR KSE2 241005Z 16009KT 24/21 A2981 RMK A01 SLP055 T02350215 RH88% DA3900
METAR KSM1 241005Z 25007KT 19/M12 A2983 RMK A01 SLP039 T01941124 RH10% DA4700
METAR KSE1 241005Z 18006KT 23/22 A2966 RMK A01 SLP025 T02340223 RH93% DA2900
METAR KSH1 241005Z 28013KT 16/M10 A2978 RMK A01 SLP026 T01561097 RH17% DA4400
METAR KSH2 241005Z 00000KT 22/21 A2975 RMK A01 SLP054 T02150211 RH97% DA2900
METAR KSB1 241005Z 30014KT 22/M15 A2998 RMK A01 SLP051 T02161153 RH07% DA6300 RFTI1
METAR KSVS 241005Z 25008KT 10/M01 A2973 RMK A01 SLP018 T00951007 RH49% DA3600
METAR KSLS 241005Z 24013KT 18/M10 A2978 RMK A01 SLP029 T01851103 RH13% DA4400 RFTI1
METAR KSM2 241005Z 27015KT 20/M14 A2979 RMK A01 SLP025 T02021138 RH09% DA4900 RFTI1
METAR KSYS 241005Z 17008KT 20/19 A2975 RMK A01 SLP030 T02030193 RH94% DA3800
METAR KWT1 241005Z 20005KT 20/19 A2976 RMK A01 SLP037 T02040186 RH90% DA3800
METAR KSP2 241005Z 25012KT 17/M06 A2974 RMK A01 SLP014 T01681062 RH20% DA4300
METAR KLB1 241005Z 24009KT 18/M09 A2979 RMK A01 SLP034 T01761085 RH16% DA4400
METAR KSP1 241005Z 00000KT 16/12 A2971 RMK A01 SLP024 T01630123 RH77% DA3200
METAR KST2 241005Z 19012KT 24/23 A2971 RMK A01 SLP037 T02440234 RH94% DA3300
METAR KSC1 241005Z 16006KT 24/19 A2979 RMK A01 SLP041 T02350188 RH75% DA4100
METAR KST3 241005Z 02021KT 14/M00 A2984 RMK A01 SLP045 T01411000 RH38% DA4100
METAR KST4 241005Z 00009KT 06/M01 A2989 RMK A01 SLP060 T00641009 RH59% DA3700
METAR KSDS 241005Z 26009KT 15/M10 A2981 RMK A01 SLP030 T01461102 RH17% DA4600
METAR KSU1 241005Z 36012KT 10/02 A2987 RMK A01 SLP055 T01020016 RH55% DA3800
METAR KSW1 241005Z 18010KT 24/21 A2979 RMK A01 SLP041 T02370206 RH83% DA4200
METAR KTAS 241005Z 25010KT 17/M07 A2978 RMK A01 SLP032 T01691075 RH18% DA4200
METAR KTA1 241005Z 23008KT 17/M08 A2980 RMK A01 SLP042 T01731076 RH18% DA3900
METAR KTAT 241005Z 27011KT 17/M16 A2987 RMK A01 SLP033 T01701157 RH09% DA5200 RFTI1
METAR KTE1 241005Z 35012KT 08/M02 A2993 RMK A01 SLP042 T00781023 RH49% DA5000
METAR KTH1 241005Z 20008KT 24/23 A2969 RMK A01 SLP034 T02410227 RH92% DA3100
METAR KTR1 241005Z 19011KT 23/23 A2967 RMK A01 SLP021 T02280228 RH100% DA3100
METAR KTIS 241005Z 32015KT 17/M09 A2979 RMK A01 SLP024 T01661087 RH17% DA4600
METAR KTUR 241005Z 32004KT 17/10 A2968 RMK A01 SLP010 T01660099 RH65% DA3500
METAR KUM1 241005Z 01018KT 13/M01 A2984 RMK A01 SLP035 T01331010 RH37% DA4500
METAR KVA1 241005Z 27008KT 22/M14 A2993 RMK A01 SLP054 T02161142 RH08% DA5600
METAR KVE1 241005Z 02016KT 13/M00 A2987 RMK A01 SLP038 T01311002 RH40% DA4800
METAR KVP1 241005Z 31013KT 11/M04 A2977 RMK A01 SLP026 T01091043 RH34% DA3900
METAR KWA1 241005Z 22007KT 24/23 A2977 RMK A01 SLP050 T02440225 RH89% DA3600
METAR KWE1 241005Z 20015KT 24/22 A2968 RMK A01 SLP027 T02430222 RH88% DA3200
METAR KWE2 241005Z 24009KT 14/M06 A2981 RMK A01 SLP042 T01381057 RH25% DA3900
METAR KWE3 241005Z 20006KT 21/20 A2965 RMK A01 SLP014 T02060205 RH99% DA3400
METAR KWVS 241005Z 25013KT 24/M14 A2973 RMK A01 SLP019 T02391140 RH07% DA4600 RFTI1
METAR KWI1 241005Z 15006KT 23/22 A2955 RMK A01 SLP996 T02290217 RH93% DA2400
METAR KWOS 241005Z 23013KT 16/M10 A2979 RMK A01 SLP030 T01631096 RH16% DA4400

&&